sensor_id;sensor_type;location;lat;lon;timestamp;temperature;humidity
22680;DHT22;11507;44.858;10.374;2023-07-31T13:07:45;44.00;55.90
22680;DHT22;11507;44.858;10.374;2023-07-31T13:10:11;44.10;53.20
22680;DHT22;11507;44.858;10.374;2023-07-31T13:12:37;44.10;53.30
22680;DHT22;11507;44.858;10.374;2023-07-31T13:15:05;43.90;53.30
22680;DHT22;11507;44.858;10.374;2023-07-31T13:17:31;44.00;53.40
22680;DHT22;11507;44.858;10.374;2023-07-31T13:19:56;44.00;53.20
22680;DHT22;11507;44.858;10.374;2023-07-31T13:22:23;44.20;52.50
22680;DHT22;11507;44.858;10.374;2023-07-31T13:24:48;44.30;51.00
22680;DHT22;11507;44.858;10.374;2023-07-31T13:27:14;44.10;49.40
22680;DHT22;11507;44.858;10.374;2023-07-31T13:29:54;44.20;51.40
22680;DHT22;11507;44.858;10.374;2023-07-31T13:32:20;43.70;51.40
22680;DHT22;11507;44.858;10.374;2023-07-31T13:38:05;43.70;52.20
22680;DHT22;11507;44.858;10.374;2023-07-31T13:40:31;44.20;51.30
22680;DHT22;11507;44.858;10.374;2023-07-31T13:42:56;44.60;50.10
22680;DHT22;11507;44.858;10.374;2023-07-31T13:45:22;44.50;49.20
22680;DHT22;11507;44.858;10.374;2023-07-31T13:47:50;44.30;50.10
22680;DHT22;11507;44.858;10.374;2023-07-31T13:50:16;44.30;50.20
22680;DHT22;11507;44.858;10.374;2023-07-31T13:52:44;44.30;50.00
22680;DHT22;11507;44.858;10.374;2023-07-31T13:55:10;44.20;50.20
22680;DHT22;11507;44.858;10.374;2023-07-31T13:57:36;44.40;49.70
22680;DHT22;11507;44.858;10.374;2023-07-31T14:00:02;44.60;50.30
22680;DHT22;11507;44.858;10.374;2023-07-31T14:02:30;44.70;47.70
22680;DHT22;11507;44.858;10.374;2023-07-31T14:04:56;44.80;48.90
22680;DHT22;11507;44.858;10.374;2023-07-31T14:07:22;44.70;48.60
22680;DHT22;11507;44.858;10.374;2023-07-31T14:09:47;44.90;48.50
22680;DHT22;11507;44.858;10.374;2023-07-31T14:12:13;44.90;48.70
22680;DHT22;11507;44.858;10.374;2023-07-31T14:14:39;44.70;47.70
22680;DHT22;11507;44.858;10.374;2023-07-31T14:17:05;44.70;47.80
22680;DHT22;11507;44.858;10.374;2023-07-31T14:19:31;44.60;49.00
22680;DHT22;11507;44.858;10.374;2023-07-31T14:21:59;44.40;48.40
22680;DHT22;11507;44.858;10.374;2023-07-31T14:24:25;44.20;49.40
22680;DHT22;11507;44.858;10.374;2023-07-31T14:26:50;43.70;49.00
22680;DHT22;11507;44.858;10.374;2023-07-31T14:29:16;43.90;49.50
22680;DHT22;11507;44.858;10.374;2023-07-31T14:31:42;44.00;48.40
22680;DHT22;11507;44.858;10.374;2023-07-31T14:34:08;44.10;47.40
22680;DHT22;11507;44.858;10.374;2023-07-31T14:36:34;43.60;48.00
22680;DHT22;11507;44.858;10.374;2023-07-31T14:38:59;43.40;48.70
22680;DHT22;11507;44.858;10.374;2023-07-31T14:41:25;43.10;48.50
22680;DHT22;11507;44.858;10.374;2023-07-31T14:43:51;42.90;49.20
22680;DHT22;11507;44.858;10.374;2023-07-31T14:46:17;42.60;50.40
22680;DHT22;11507;44.858;10.374;2023-07-31T14:48:42;42.90;50.80
22680;DHT22;11507;44.858;10.374;2023-07-31T14:51:08;42.70;49.20
22680;DHT22;11507;44.858;10.374;2023-07-31T14:53:34;42.70;49.70
22680;DHT22;11507;44.858;10.374;2023-07-31T14:55:59;42.30;49.50
22680;DHT22;11507;44.858;10.374;2023-07-31T14:58:25;41.70;50.50
22680;DHT22;11507;44.858;10.374;2023-07-31T15:00:51;41.00;51.60
22680;DHT22;11507;44.858;10.374;2023-07-31T15:03:18;40.90;52.10
22680;DHT22;11507;44.858;10.374;2023-07-31T15:05:44;41.20;52.30
22680;DHT22;11507;44.858;10.374;2023-07-31T15:08:09;41.80;52.00
22680;DHT22;11507;44.858;10.374;2023-07-31T15:10:35;41.90;49.10
22680;DHT22;11507;44.858;10.374;2023-07-31T15:13:01;42.20;51.00
22680;DHT22;11507;44.858;10.374;2023-07-31T15:15:27;42.40;51.40
22680;DHT22;11507;44.858;10.374;2023-07-31T15:17:53;42.30;50.80
22680;DHT22;11507;44.858;10.374;2023-07-31T15:20:20;42.30;50.80
22680;DHT22;11507;44.858;10.374;2023-07-31T15:22:47;42.30;50.70
22680;DHT22;11507;44.858;10.374;2023-07-31T15:25:13;42.30;50.40
22680;DHT22;11507;44.858;10.374;2023-07-31T15:27:39;42.10;51.10
22680;DHT22;11507;44.858;10.374;2023-07-31T15:30:05;41.80;50.00
22680;DHT22;11507;44.858;10.374;2023-07-31T15:32:31;41.40;50.70
22680;DHT22;11507;44.858;10.374;2023-07-31T15:34:58;40.90;51.30
22680;DHT22;11507;44.858;10.374;2023-07-31T15:37:23;40.30;52.00
22680;DHT22;11507;44.858;10.374;2023-07-31T15:39:49;39.90;54.30
22680;DHT22;11507;44.858;10.374;2023-07-31T15:42:15;39.40;54.80
22680;DHT22;11507;44.858;10.374;2023-07-31T15:44:42;39.20;56.10
22680;DHT22;11507;44.858;10.374;2023-07-31T15:47:07;38.70;56.00
22680;DHT22;11507;44.858;10.374;2023-07-31T15:49:33;38.40;55.90
22680;DHT22;11507;44.858;10.374;2023-07-31T15:51:59;38.20;56.10
22680;DHT22;11507;44.858;10.374;2023-07-31T15:54:25;37.80;57.20
22680;DHT22;11507;44.858;10.374;2023-07-31T15:56:50;37.50;57.70
22680;DHT22;11507;44.858;10.374;2023-07-31T15:59:16;36.90;57.90
22680;DHT22;11507;44.858;10.374;2023-07-31T16:01:42;36.50;59.60
22680;DHT22;11507;44.858;10.374;2023-07-31T16:04:08;36.10;59.60
22680;DHT22;11507;44.858;10.374;2023-07-31T16:06:33;35.90;60.70
22680;DHT22;11507;44.858;10.374;2023-07-31T16:09:00;35.90;62.10
22680;DHT22;11507;44.858;10.374;2023-07-31T16:11:27;35.60;61.90
22680;DHT22;11507;44.858;10.374;2023-07-31T16:13:52;35.30;62.20
22680;DHT22;11507;44.858;10.374;2023-07-31T16:16:18;35.10;63.10
22680;DHT22;11507;44.858;10.374;2023-07-31T16:18:45;34.90;63.10
22680;DHT22;11507;44.858;10.374;2023-07-31T16:21:11;34.90;64.10
22680;DHT22;11507;44.858;10.374;2023-07-31T16:23:36;34.70;64.50
22680;DHT22;11507;44.858;10.374;2023-07-31T16:26:02;34.60;65.00
22680;DHT22;11507;44.858;10.374;2023-07-31T16:28:28;34.40;65.80
22680;DHT22;11507;44.858;10.374;2023-07-31T16:30:54;34.20;65.90
22680;DHT22;11507;44.858;10.374;2023-07-31T16:33:19;34.00;67.80
22680;DHT22;11507;44.858;10.374;2023-07-31T16:35:45;33.70;69.40
22680;DHT22;11507;44.858;10.374;2023-07-31T16:38:11;33.50;71.10
22680;DHT22;11507;44.858;10.374;2023-07-31T16:40:37;33.10;74.60
22680;DHT22;11507;44.858;10.374;2023-07-31T16:43:02;32.90;77.30
22680;DHT22;11507;44.858;10.374;2023-07-31T16:45:28;32.50;78.90
22680;DHT22;11507;44.858;10.374;2023-07-31T16:47:54;32.30;80.30
22680;DHT22;11507;44.858;10.374;2023-07-31T16:50:20;32.20;80.50
22680;DHT22;11507;44.858;10.374;2023-07-31T16:52:45;32.00;81.90
22680;DHT22;11507;44.858;10.374;2023-07-31T16:55:11;32.00;82.50
22680;DHT22;11507;44.858;10.374;2023-07-31T16:57:37;31.90;84.20
22680;DHT22;11507;44.858;10.374;2023-07-31T17:00:03;31.80;84.60
22680;DHT22;11507;44.858;10.374;2023-07-31T17:02:29;31.90;83.90
22680;DHT22;11507;44.858;10.374;2023-07-31T17:04:54;32.00;84.20
22680;DHT22;11507;44.858;10.374;2023-07-31T17:07:21;32.10;82.40
22680;DHT22;11507;44.858;10.374;2023-07-31T17:09:47;32.10;82.60
22680;DHT22;11507;44.858;10.374;2023-07-31T17:12:13;32.00;82.90
22680;DHT22;11507;44.858;10.374;2023-07-31T17:14:39;32.00;83.10
22680;DHT22;11507;44.858;10.374;2023-07-31T17:17:06;31.90;83.20
22680;DHT22;11507;44.858;10.374;2023-07-31T17:19:32;31.80;83.70
22680;DHT22;11507;44.858;10.374;2023-07-31T17:21:58;31.60;84.30
22680;DHT22;11507;44.858;10.374;2023-07-31T17:24:23;31.50;84.10
22680;DHT22;11507;44.858;10.374;2023-07-31T17:26:49;31.40;84.60
22680;DHT22;11507;44.858;10.374;2023-07-31T17:29:15;31.30;84.80
22680;DHT22;11507;44.858;10.374;2023-07-31T17:31:42;31.20;85.70
22680;DHT22;11507;44.858;10.374;2023-07-31T17:34:08;31.00;86.10
22680;DHT22;11507;44.858;10.374;2023-07-31T17:36:34;30.90;86.10
22680;DHT22;11507;44.858;10.374;2023-07-31T17:39:00;30.80;87.00
22680;DHT22;11507;44.858;10.374;2023-07-31T17:41:26;30.70;86.80
22680;DHT22;11507;44.858;10.374;2023-07-31T17:43:53;30.60;88.00
22680;DHT22;11507;44.858;10.374;2023-07-31T17:46:19;30.40;88.40
22680;DHT22;11507;44.858;10.374;2023-07-31T17:48:45;30.30;87.50
22680;DHT22;11507;44.858;10.374;2023-07-31T17:51:12;30.20;88.20
22680;DHT22;11507;44.858;10.374;2023-07-31T17:53:37;30.10;88.50
22680;DHT22;11507;44.858;10.374;2023-07-31T17:56:03;30.00;88.60
22680;DHT22;11507;44.858;10.374;2023-07-31T17:58:29;29.90;88.60
22680;DHT22;11507;44.858;10.374;2023-07-31T18:00:55;29.90;88.70
22680;DHT22;11507;44.858;10.374;2023-07-31T18:03:21;29.80;88.20
22680;DHT22;11507;44.858;10.374;2023-07-31T18:05:46;29.70;88.90
22680;DHT22;11507;44.858;10.374;2023-07-31T18:08:12;29.60;89.70
22680;DHT22;11507;44.858;10.374;2023-07-31T18:10:47;29.50;90.20
22680;DHT22;11507;44.858;10.374;2023-07-31T18:13:14;29.30;90.20
22680;DHT22;11507;44.858;10.374;2023-07-31T18:15:46;29.30;90.40
22680;DHT22;11507;44.858;10.374;2023-07-31T18:18:13;29.10;90.60
22680;DHT22;11507;44.858;10.374;2023-07-31T18:20:39;29.00;90.90
22680;DHT22;11507;44.858;10.374;2023-07-31T18:23:05;28.90;91.00
22680;DHT22;11507;44.858;10.374;2023-07-31T18:25:31;28.80;91.20
22680;DHT22;11507;44.858;10.374;2023-07-31T18:27:56;28.70;91.80
22680;DHT22;11507;44.858;10.374;2023-07-31T18:30:23;28.60;92.40
22680;DHT22;11507;44.858;10.374;2023-07-31T18:32:48;28.50;93.20
22680;DHT22;11507;44.858;10.374;2023-07-31T18:35:14;28.30;94.00
22680;DHT22;11507;44.858;10.374;2023-07-31T18:37:42;28.20;94.20
22680;DHT22;11507;44.858;10.374;2023-07-31T18:40:08;28.10;94.40
22680;DHT22;11507;44.858;10.374;2023-07-31T18:42:34;28.00;94.70
22680;DHT22;11507;44.858;10.374;2023-07-31T18:45:00;27.90;95.00
22680;DHT22;11507;44.858;10.374;2023-07-31T18:47:26;27.70;95.10
22680;DHT22;11507;44.858;10.374;2023-07-31T18:49:52;27.60;95.50
22680;DHT22;11507;44.858;10.374;2023-07-31T18:52:17;27.50;96.00
22680;DHT22;11507;44.858;10.374;2023-07-31T18:54:43;27.40;96.30
22680;DHT22;11507;44.858;10.374;2023-07-31T18:57:09;27.30;96.70
22680;DHT22;11507;44.858;10.374;2023-07-31T18:59:35;27.30;96.60
22680;DHT22;11507;44.858;10.374;2023-07-31T19:02:01;27.20;97.10
22680;DHT22;11507;44.858;10.374;2023-07-31T19:04:26;27.10;97.20
22680;DHT22;11507;44.858;10.374;2023-07-31T19:06:52;27.00;97.70
22680;DHT22;11507;44.858;10.374;2023-07-31T19:09:32;27.00;97.80
22680;DHT22;11507;44.858;10.374;2023-07-31T19:11:58;27.00;98.00
22680;DHT22;11507;44.858;10.374;2023-07-31T19:14:24;26.90;98.70
22680;DHT22;11507;44.858;10.374;2023-07-31T19:16:50;26.80;99.70
22680;DHT22;11507;44.858;10.374;2023-07-31T19:19:16;26.70;99.90
22680;DHT22;11507;44.858;10.374;2023-07-31T19:21:42;26.60;99.90
22680;DHT22;11507;44.858;10.374;2023-07-31T19:24:08;26.50;99.90
22680;DHT22;11507;44.858;10.374;2023-07-31T19:26:34;26.40;99.90
22680;DHT22;11507;44.858;10.374;2023-07-31T19:29:00;26.40;99.90
22680;DHT22;11507;44.858;10.374;2023-07-31T19:31:25;26.40;99.90
22680;DHT22;11507;44.858;10.374;2023-07-31T19:33:51;26.30;99.90
22680;DHT22;11507;44.858;10.374;2023-07-31T19:36:17;26.20;99.90
22680;DHT22;11507;44.858;10.374;2023-07-31T19:38:43;26.10;99.90
22680;DHT22;11507;44.858;10.374;2023-07-31T19:41:10;26.10;99.90
22680;DHT22;11507;44.858;10.374;2023-07-31T19:43:36;26.00;99.90
22680;DHT22;11507;44.858;10.374;2023-07-31T19:46:01;26.00;99.90
22680;DHT22;11507;44.858;10.374;2023-07-31T19:48:27;25.90;99.90
22680;DHT22;11507;44.858;10.374;2023-07-31T19:50:53;25.90;99.90
22680;DHT22;11507;44.858;10.374;2023-07-31T19:53:19;25.90;99.90
22680;DHT22;11507;44.858;10.374;2023-07-31T19:55:48;25.80;99.90
22680;DHT22;11507;44.858;10.374;2023-07-31T19:58:14;25.80;99.90
22680;DHT22;11507;44.858;10.374;2023-07-31T20:00:40;25.70;99.90
22680;DHT22;11507;44.858;10.374;2023-07-31T20:03:06;25.60;99.90
22680;DHT22;11507;44.858;10.374;2023-07-31T20:05:32;25.60;99.90
22680;DHT22;11507;44.858;10.374;2023-07-31T20:07:58;25.50;99.90
22680;DHT22;11507;44.858;10.374;2023-07-31T20:10:24;25.50;99.90
22680;DHT22;11507;44.858;10.374;2023-07-31T20:12:49;25.40;99.90
22680;DHT22;11507;44.858;10.374;2023-07-31T20:15:20;25.30;99.90
22680;DHT22;11507;44.858;10.374;2023-07-31T20:17:47;25.20;99.90
22680;DHT22;11507;44.858;10.374;2023-07-31T20:20:13;25.20;99.90
22680;DHT22;11507;44.858;10.374;2023-07-31T20:22:39;25.20;99.90
22680;DHT22;11507;44.858;10.374;2023-07-31T20:25:06;25.10;99.90
22680;DHT22;11507;44.858;10.374;2023-07-31T20:27:32;25.00;99.90
22680;DHT22;11507;44.858;10.374;2023-07-31T20:29:57;25.00;99.90
22680;DHT22;11507;44.858;10.374;2023-07-31T20:32:23;24.90;99.90
22680;DHT22;11507;44.858;10.374;2023-07-31T20:34:49;24.90;99.90
22680;DHT22;11507;44.858;10.374;2023-07-31T20:37:15;24.90;99.90
22680;DHT22;11507;44.858;10.374;2023-07-31T20:39:40;24.80;99.90
22680;DHT22;11507;44.858;10.374;2023-07-31T20:42:06;24.80;99.90
22680;DHT22;11507;44.858;10.374;2023-07-31T20:44:32;24.70;99.90
22680;DHT22;11507;44.858;10.374;2023-07-31T20:46:58;24.70;99.90
22680;DHT22;11507;44.858;10.374;2023-07-31T20:49:24;24.70;99.90
22680;DHT22;11507;44.858;10.374;2023-07-31T20:51:50;24.60;99.90
22680;DHT22;11507;44.858;10.374;2023-07-31T20:54:16;24.60;99.90
22680;DHT22;11507;44.858;10.374;2023-07-31T20:56:42;24.50;99.90
22680;DHT22;11507;44.858;10.374;2023-07-31T20:59:08;24.50;99.90
22680;DHT22;11507;44.858;10.374;2023-07-31T21:01:35;24.40;99.90
22680;DHT22;11507;44.858;10.374;2023-07-31T21:04:00;24.40;99.90
22680;DHT22;11507;44.858;10.374;2023-07-31T21:06:27;24.30;99.90
22680;DHT22;11507;44.858;10.374;2023-07-31T21:08:52;24.30;99.90
22680;DHT22;11507;44.858;10.374;2023-07-31T21:11:18;24.30;99.90
22680;DHT22;11507;44.858;10.374;2023-07-31T21:13:44;24.20;99.90
22680;DHT22;11507;44.858;10.374;2023-07-31T21:16:13;24.20;99.90
22680;DHT22;11507;44.858;10.374;2023-07-31T21:18:38;24.20;99.90
22680;DHT22;11507;44.858;10.374;2023-07-31T21:21:04;24.10;99.90
22680;DHT22;11507;44.858;10.374;2023-07-31T21:23:30;24.10;99.90
22680;DHT22;11507;44.858;10.374;2023-07-31T21:25:56;24.10;99.90
22680;DHT22;11507;44.858;10.374;2023-07-31T21:28:22;24.00;99.90
22680;DHT22;11507;44.858;10.374;2023-07-31T21:30:47;24.00;99.90
22680;DHT22;11507;44.858;10.374;2023-07-31T21:33:13;24.00;99.90
22680;DHT22;11507;44.858;10.374;2023-07-31T21:35:39;23.90;99.90
22680;DHT22;11507;44.858;10.374;2023-07-31T21:38:05;23.90;99.90
22680;DHT22;11507;44.858;10.374;2023-07-31T21:40:31;23.90;99.90
22680;DHT22;11507;44.858;10.374;2023-07-31T21:42:57;23.90;99.90
22680;DHT22;11507;44.858;10.374;2023-07-31T21:45:23;23.80;99.90
22680;DHT22;11507;44.858;10.374;2023-07-31T21:47:49;23.70;99.90
22680;DHT22;11507;44.858;10.374;2023-07-31T21:50:18;23.60;99.90
22680;DHT22;11507;44.858;10.374;2023-07-31T21:52:43;23.60;99.90
22680;DHT22;11507;44.858;10.374;2023-07-31T21:55:09;23.50;99.90
22680;DHT22;11507;44.858;10.374;2023-07-31T21:57:35;23.50;99.90
22680;DHT22;11507;44.858;10.374;2023-07-31T22:00:03;23.40;99.90
22680;DHT22;11507;44.858;10.374;2023-07-31T22:02:31;23.40;99.90
22680;DHT22;11507;44.858;10.374;2023-07-31T22:04:57;23.40;99.90
22680;DHT22;11507;44.858;10.374;2023-07-31T22:07:22;23.40;99.90
22680;DHT22;11507;44.858;10.374;2023-07-31T22:09:48;23.40;99.90
22680;DHT22;11507;44.858;10.374;2023-07-31T22:12:14;23.40;99.90
22680;DHT22;11507;44.858;10.374;2023-07-31T22:14:40;23.30;99.90
22680;DHT22;11507;44.858;10.374;2023-07-31T22:17:06;23.20;99.90
22680;DHT22;11507;44.858;10.374;2023-07-31T22:19:31;23.20;99.90
22680;DHT22;11507;44.858;10.374;2023-07-31T22:21:57;23.20;99.90
22680;DHT22;11507;44.858;10.374;2023-07-31T22:24:26;23.20;99.90
22680;DHT22;11507;44.858;10.374;2023-07-31T22:26:52;23.10;99.90
22680;DHT22;11507;44.858;10.374;2023-07-31T22:29:17;23.10;99.90
22680;DHT22;11507;44.858;10.374;2023-07-31T22:31:45;23.10;99.90
22680;DHT22;11507;44.858;10.374;2023-07-31T22:34:11;23.10;99.90
22680;DHT22;11507;44.858;10.374;2023-07-31T22:36:36;23.00;99.90
22680;DHT22;11507;44.858;10.374;2023-07-31T22:39:02;23.10;99.90
22680;DHT22;11507;44.858;10.374;2023-07-31T22:41:29;23.00;99.90
22680;DHT22;11507;44.858;10.374;2023-07-31T22:43:55;23.00;99.90
22680;DHT22;11507;44.858;10.374;2023-07-31T22:46:21;22.90;99.90
22680;DHT22;11507;44.858;10.374;2023-07-31T22:48:46;22.90;99.90
22680;DHT22;11507;44.858;10.374;2023-07-31T22:51:12;22.80;99.90
22680;DHT22;11507;44.858;10.374;2023-07-31T22:53:38;22.90;99.90
22680;DHT22;11507;44.858;10.374;2023-07-31T22:56:05;22.80;99.90
22680;DHT22;11507;44.858;10.374;2023-07-31T22:58:31;22.70;99.90
22680;DHT22;11507;44.858;10.374;2023-07-31T23:01:04;22.70;99.90
22680;DHT22;11507;44.858;10.374;2023-07-31T23:03:30;22.60;99.90
22680;DHT22;11507;44.858;10.374;2023-07-31T23:05:56;22.60;99.90
22680;DHT22;11507;44.858;10.374;2023-07-31T23:08:22;22.60;99.90
22680;DHT22;11507;44.858;10.374;2023-07-31T23:10:48;22.60;99.90
22680;DHT22;11507;44.858;10.374;2023-07-31T23:13:15;22.50;99.90
22680;DHT22;11507;44.858;10.374;2023-07-31T23:15:42;22.50;99.90
22680;DHT22;11507;44.858;10.374;2023-07-31T23:18:08;22.50;99.90
22680;DHT22;11507;44.858;10.374;2023-07-31T23:20:34;22.50;99.90
22680;DHT22;11507;44.858;10.374;2023-07-31T23:23:00;22.60;99.90
22680;DHT22;11507;44.858;10.374;2023-07-31T23:25:26;22.50;99.90
22680;DHT22;11507;44.858;10.374;2023-07-31T23:27:51;22.50;99.90
22680;DHT22;11507;44.858;10.374;2023-07-31T23:30:17;22.50;99.90
22680;DHT22;11507;44.858;10.374;2023-07-31T23:32:43;22.40;99.90
22680;DHT22;11507;44.858;10.374;2023-07-31T23:35:09;22.40;99.90
22680;DHT22;11507;44.858;10.374;2023-07-31T23:37:34;22.40;99.90
22680;DHT22;11507;44.858;10.374;2023-07-31T23:40:00;22.30;99.90
22680;DHT22;11507;44.858;10.374;2023-07-31T23:42:26;22.20;99.90
22680;DHT22;11507;44.858;10.374;2023-07-31T23:44:54;22.30;99.90
22680;DHT22;11507;44.858;10.374;2023-07-31T23:47:21;22.20;99.90
22680;DHT22;11507;44.858;10.374;2023-07-31T23:49:47;22.20;99.90
22680;DHT22;11507;44.858;10.374;2023-07-31T23:52:13;22.20;99.90
22680;DHT22;11507;44.858;10.374;2023-07-31T23:54:39;22.20;99.90
22680;DHT22;11507;44.858;10.374;2023-07-31T23:57:05;22.20;99.90
22680;DHT22;11507;44.858;10.374;2023-07-31T23:59:31;22.20;99.90
